VNKT/KTM METAR and TAF weather

Enter ICAO airport designator
Station Type Date Time Source
VNKT METAR 2019/06/17 15:20 UTC NOAA

VNKT 171520Z 07005KT 7000 FEW015 20/18 Q1011 NOSIG


Station Type Date Time Source
VNKT Decoded METAR 2019/06/17 15:20 UTC NOAA

Kathmandu Airport, Nepal (VNKT) 27-42N 085-22E 1337M
Jun 17, 2019 - 11:20 AM EDT / 2019.06.17 1520 UTC
Wind: from the ENE (070 degrees) at 6 MPH (5 KT):0
Visibility: 4 mile(s):0
Sky conditions: mostly clear
Temperature: 68 F (20 C)
Dew Point: 64 F (18 C)
Relative Humidity: 88%
Pressure (altimeter): 29.85 in. Hg (1011 hPa)
ob: VNKT 171520Z 07005KT 7000 FEW015 20/18 Q1011 NOSIG
cycle: 15

Station Type Date Time Source
VNKT TAF 2019/06/17 12:42 UTC NOAA

TAF VNKT 171100Z 1712/1812 20006KT 7000 FEW015 SCT030 BKN100 PROB40 1712/1718 VRB10KT 4000 -TSRA FEW025CB
BECMG 1714/1715 19004KT 6000 FEW015 SCT100
BECMG 1800/1802 VRB02KT 5000 BR FEW010 SCT030 BKN100
BECMG 1804/1805 26004KT 7000 FEW015 SCT100
BECMG 1807/1808 29010KT 8000 FEW020 SCT030 BKN100 PROB40 1808/1812 VRB14KT 4000 -TSRA FEW025CB

Example: see airport list